Time;durP1;ratioP1;P1;durP2;ratioP2;P2;SDS_P1;SDS_P2;PMS_P1;PMS_P2;Temp;Humidity;BMP_temperature;BMP_pressure;BME280_temperature;BME280_humidity;BME280_pressure;Samples;Min_cycle;Max_cycle;Signal;HPM_P1;HPM_P2
2023/10/02 00:01:52;;;;;;;8.15;3.88;;;;;;;;;;5136671;27;20116;-66
2023/10/02 00:04:24;;;;;;;5.22;3.45;;;;;;;;;;5136547;27;20039;-66
2023/10/02 00:07:05;;;;;;;6.25;4.20;;;;;;;;;;5136890;27;20028;-58
2023/10/02 00:09:36;;;;;;;5.38;3.70;;;;;;;;;;5136765;27;20100;-66
2023/10/02 00:12:11;;;;;;;5.53;4.03;;;;;;;;;;5136635;27;20054;-66
2023/10/02 00:14:38;;;;;;;6.13;4.38;;;;;;;;;;5136787;27;20043;-66
2023/10/02 00:17:04;;;;;;;5.68;4.38;;;;;;;;;;5118323;27;20030;-66
2023/10/02 00:19:30;;;;;;;6.20;4.00;;;;;;;;;;5136536;27;20035;-66
2023/10/02 00:22:08;;;;;;;7.55;4.32;;;;;;;;;;5136617;27;20035;-66
2023/10/02 00:24:35;;;;;;;6.20;3.90;;;;;;;;;;5136262;27;20084;-66
2023/10/02 00:27:02;;;;;;;6.07;3.97;;;;;;;;;;5136321;27;20023;-66
2023/10/02 00:29:28;;;;;;;7.25;3.95;;;;;;;;;;5136125;27;20046;-66
2023/10/02 00:31:55;;;;;;;6.43;3.33;;;;;;;;;;5136641;27;20031;-66
2023/10/02 00:34:33;;;;;;;7.65;4.07;;;;;;;;;;5117748;27;20529;-66
2023/10/02 00:37:05;;;;;;;8.38;4.20;;;;;;;;;;5136519;27;20057;-65
2023/10/02 00:39:39;;;;;;;5.97;3.25;;;;;;;;;;5117834;27;20466;-67
2023/10/02 00:42:17;;;;;;;4.63;3.50;;;;;;;;;;5117568;27;20031;-67
2023/10/02 00:44:52;;;;;;;9.73;3.67;;;;;;;;;;5135668;27;20035;-67
2023/10/02 00:47:35;;;;;;;5.35;3.90;;;;;;;;;;5117524;27;20031;-67
2023/10/02 00:50:10;;;;;;;6.03;3.83;;;;;;;;;;5135773;27;20035;-66
2023/10/02 00:52:40;;;;;;;5.15;3.80;;;;;;;;;;5136017;27;20463;-66
2023/10/02 00:55:07;;;;;;;7.15;4.50;;;;;;;;;;5135783;27;20046;-66
2023/10/02 00:57:35;;;;;;;8.43;3.83;;;;;;;;;;5117419;27;20042;-66
2023/10/02 01:00:05;;;;;;;7.70;3.70;;;;;;;;;;5117344;27;20043;-65
2023/10/02 01:02:31;;;;;;;;;;;;;;;;;;5136036;27;20054;-65
2023/10/02 01:04:56;;;;;;;4.93;3.20;;;;;;;;;;5135752;27;19911;-65
2023/10/02 01:07:22;;;;;;;5.60;3.65;;;;;;;;;;5135698;27;20325;-65
2023/10/02 01:10:06;;;;;;;5.90;4.03;;;;;;;;;;5134878;27;20042;-65
2023/10/02 01:12:43;;;;;;;6.68;3.78;;;;;;;;;;5116948;27;20054;-65
2023/10/02 01:15:11;;;;;;;4.72;3.40;;;;;;;;;;5135895;27;20050;-66
2023/10/02 01:17:39;;;;;;;5.88;3.55;;;;;;;;;;5135339;27;20035;-66
2023/10/02 01:20:12;;;;;;;6.95;3.90;;;;;;;;;;5116903;27;20043;-59
2023/10/02 01:22:41;;;;;;;7.28;4.43;;;;;;;;;;5135410;27;20027;-59
2023/10/02 01:25:13;;;;;;;10.18;3.92;;;;;;;;;;5135362;27;20077;-59
2023/10/02 01:27:42;;;;;;;5.05;3.63;;;;;;;;;;5135285;27;20074;-59
2023/10/02 01:30:17;;;;;;;7.38;3.85;;;;;;;;;;5116873;27;20092;-59
2023/10/02 01:33:06;;;;;;;8.60;4.35;;;;;;;;;;5116779;27;20066;-59
2023/10/02 01:35:39;;;;;;;6.13;4.07;;;;;;;;;;5134954;27;20044;-59
2023/10/02 01:38:15;;;;;;;5.25;4.18;;;;;;;;;;5116562;27;20068;-66
2023/10/02 01:40:54;;;;;;;8.65;4.22;;;;;;;;;;5116691;27;20477;-66
2023/10/02 01:43:24;;;;;;;8.27;3.88;;;;;;;;;;5134655;27;20039;-66
2023/10/02 01:45:54;;;;;;;8.40;4.35;;;;;;;;;;5135159;27;20084;-59
2023/10/02 01:51:21;;;;;;;7.20;4.18;;;;;;;;;;5116299;28;20042;-67
2023/10/02 01:53:57;;;;;;;10.00;4.15;;;;;;;;;;5116432;27;20046;-58
2023/10/02 01:56:25;;;;;;;8.85;4.05;;;;;;;;;;5115552;27;20477;-58
2023/10/02 01:58:52;;;;;;;6.82;4.22;;;;;;;;;;5116415;28;20531;-58
2023/10/02 02:01:20;;;;;;;6.72;4.28;;;;;;;;;;5116274;28;20060;-58
2023/10/02 02:03:48;;;;;;;6.97;3.88;;;;;;;;;;5098505;28;20051;-59
2023/10/02 02:06:20;;;;;;;8.95;4.63;;;;;;;;;;5030624;28;20044;-67
2023/10/02 02:08:47;;;;;;;7.68;4.35;;;;;;;;;;5098675;28;20430;-65
2023/10/02 02:11:20;;;;;;;4.85;3.83;;;;;;;;;;5098673;28;20034;-66
2023/10/02 02:13:55;;;;;;;5.40;4.25;;;;;;;;;;5098821;28;20092;-58
2023/10/02 02:16:33;;;;;;;6.38;4.20;;;;;;;;;;5030685;28;20045;-60
2023/10/02 02:19:07;;;;;;;7.65;4.30;;;;;;;;;;5030625;28;20041;-59
2023/10/02 02:21:34;;;;;;;9.00;4.90;;;;;;;;;;5098955;28;20046;-57
2023/10/02 02:24:08;;;;;;;7.85;4.20;;;;;;;;;;5030624;28;20398;-58
2023/10/02 02:26:36;;;;;;;6.20;4.40;;;;;;;;;;5031082;28;20107;-58
2023/10/02 02:29:02;;;;;;;6.80;4.15;;;;;;;;;;5098888;28;20440;-57
2023/10/02 02:31:31;;;;;;;8.05;4.60;;;;;;;;;;5030480;28;20041;-58
2023/10/02 02:34:01;;;;;;;8.25;4.45;;;;;;;;;;5030575;28;20033;-57
2023/10/02 02:36:27;;;;;;;6.25;4.63;;;;;;;;;;5098607;28;20090;-59
2023/10/02 02:39:17;;;;;;;7.88;4.18;;;;;;;;;;5098896;28;20459;-59
2023/10/02 02:41:44;;;;;;;7.43;4.50;;;;;;;;;;5030360;28;20097;-59
2023/10/02 02:44:29;;;;;;;6.03;4.15;;;;;;;;;;5081612;28;20064;-59
2023/10/02 02:46:55;;;;;;;8.45;4.57;;;;;;;;;;5098953;28;20034;-59
2023/10/02 02:49:22;;;;;;;7.18;4.55;;;;;;;;;;5030123;28;20441;-59
2023/10/02 02:51:48;;;;;;;7.28;4.07;;;;;;;;;;5030482;28;20053;-59
2023/10/02 02:54:15;;;;;;;4.90;3.55;;;;;;;;;;5030070;28;20125;-59
2023/10/02 02:56:40;;;;;;;7.35;3.72;;;;;;;;;;5030140;28;20482;-59
2023/10/02 02:59:08;;;;;;;4.40;3.20;;;;;;;;;;5098516;28;20069;-59
2023/10/02 03:01:33;;;;;;;6.53;3.75;;;;;;;;;;5092404;28;20396;-58
2023/10/02 03:04:11;;;;;;;9.43;4.68;;;;;;;;;;5019184;28;20043;-58
2023/10/02 03:06:37;;;;;;;4.85;3.88;;;;;;;;;;5021048;28;20053;-58
2023/10/02 03:09:06;;;;;;;7.10;3.97;;;;;;;;;;5024969;28;20472;-57
2023/10/02 03:11:32;;;;;;;8.07;4.68;;;;;;;;;;5022347;28;20040;-57
2023/10/02 03:14:12;;;;;;;6.32;4.22;;;;;;;;;;5023053;28;20038;-65
2023/10/02 03:16:38;;;;;;;5.57;3.60;;;;;;;;;;5022974;28;20118;-65
2023/10/02 03:19:07;;;;;;;7.95;4.65;;;;;;;;;;5090751;28;20442;-64
2023/10/02 03:21:34;;;;;;;6.10;4.35;;;;;;;;;;5023625;28;20504;-67
2023/10/02 03:24:01;;;;;;;8.93;4.50;;;;;;;;;;5022935;28;20395;-67
2023/10/02 03:29:04;;;;;;;7.50;4.72;;;;;;;;;;5022440;28;20044;-67
2023/10/02 03:31:36;;;;;;;7.37;4.33;;;;;;;;;;5023724;28;20086;-65
2023/10/02 03:35:02;;;;;;;8.13;4.00;;;;;;;;;;5091836;28;20061;-65
2023/10/02 03:36:54;;;;;;;7.85;3.85;;;;;;;;;;5034190;28;20045;-65
2023/10/02 03:42:11;;;;;;;6.00;4.13;;;;;;;;;;5023371;28;20053;-65
2023/10/02 03:44:37;;;;;;;8.95;4.10;;;;;;;;;;5089925;28;20026;-66
2023/10/02 03:47:02;;;;;;;6.80;4.60;;;;;;;;;;5021714;28;20074;-65
2023/10/02 03:49:28;;;;;;;10.63;4.63;;;;;;;;;;5023109;28;20061;-65
2023/10/02 03:51:55;;;;;;;8.07;4.65;;;;;;;;;;5072703;28;20052;-65
2023/10/02 03:54:21;;;;;;;8.23;4.50;;;;;;;;;;5090033;28;20536;-66
2023/10/02 03:56:47;;;;;;;8.93;4.90;;;;;;;;;;5091507;28;20052;-65
2023/10/02 03:59:26;;;;;;;6.80;4.40;;;;;;;;;;5021518;28;20045;-65
2023/10/02 04:01:52;;;;;;;11.15;4.68;;;;;;;;;;5021060;28;20102;-67
2023/10/02 04:04:24;;;;;;;6.90;4.90;;;;;;;;;;5022342;28;20425;-67
2023/10/02 04:06:55;;;;;;;6.47;4.85;;;;;;;;;;5023092;28;20113;-67
2023/10/02 04:09:23;;;;;;;6.85;4.65;;;;;;;;;;5090948;28;20030;-67
2023/10/02 04:11:50;;;;;;;12.27;4.70;;;;;;;;;;5020750;28;20026;-65
2023/10/02 04:14:19;;;;;;;8.85;4.25;;;;;;;;;;5022674;28;20559;-58
2023/10/02 04:19:29;;;;;;;12.20;5.00;;;;;;;;;;5022263;28;20045;-59
2023/10/02 04:21:56;;;;;;;7.35;4.40;;;;;;;;;;5089563;28;20049;-65
2023/10/02 04:24:25;;;;;;;8.77;4.95;;;;;;;;;;5020908;28;20042;-66
2023/10/02 04:26:54;;;;;;;8.40;4.45;;;;;;;;;;5090407;28;20041;-66
2023/10/02 04:29:29;;;;;;;7.53;4.10;;;;;;;;;;5021789;28;20030;-59
2023/10/02 04:34:46;;;;;;;6.55;4.22;;;;;;;;;;5021439;28;20041;-60
2023/10/02 04:37:20;;;;;;;10.20;3.92;;;;;;;;;;5020302;28;20525;-58
2023/10/02 04:42:57;;;;;;;5.65;3.60;;;;;;;;;;5022103;28;20076;-60
2023/10/02 04:45:25;;;;;;;6.88;3.92;;;;;;;;;;5021484;28;20049;-58
2023/10/02 04:47:54;;;;;;;6.35;3.90;;;;;;;;;;5019862;28;20034;-68
2023/10/02 04:52:57;;;;;;;8.20;5.13;;;;;;;;;;5100059;28;20445;-68
2023/10/02 04:55:41;;;;;;;9.30;5.00;;;;;;;;;;5031167;28;20050;-70
2023/10/02 04:58:14;;;;;;;8.63;5.07;;;;;;;;;;5031594;28;20072;-69
2023/10/02 05:01:18;;;;;;;6.53;4.65;;;;;;;;;;5029493;28;20044;-61
2023/10/02 05:03:27;;;;;;;8.73;5.25;;;;;;;;;;5082185;28;20472;-63
2023/10/02 05:05:53;;;;;;;8.07;5.07;;;;;;;;;;5112080;28;20043;-61
2023/10/02 05:08:30;;;;;;;8.00;4.38;;;;;;;;;;5113379;28;20035;-61
2023/10/02 05:11:50;;;;;;;9.68;4.70;;;;;;;;;;5113417;28;20039;-61
2023/10/02 05:16:29;;;;;;;10.30;5.55;;;;;;;;;;5114146;28;20035;-60
2023/10/02 05:18:56;;;;;;;7.85;4.85;;;;;;;;;;5113887;28;20032;-60
2023/10/02 05:21:35;;;;;;;5.95;4.82;;;;;;;;;;5114431;28;20514;-60
2023/10/02 05:24:11;;;;;;;7.03;4.80;;;;;;;;;;5114181;28;20085;-60
2023/10/02 05:26:39;;;;;;;8.90;5.30;;;;;;;;;;5114228;28;20111;-60
2023/10/02 05:29:05;;;;;;;11.05;4.90;;;;;;;;;;5114095;28;20050;-60
2023/10/02 05:31:35;;;;;;;7.95;5.38;;;;;;;;;;5113017;28;20032;-60
2023/10/02 05:34:16;;;;;;;7.63;4.97;;;;;;;;;;5096159;28;20114;-60
2023/10/02 05:39:29;;;;;;;8.18;3.85;;;;;;;;;;5113534;28;20485;-60
2023/10/02 05:42:05;;;;;;;12.65;4.95;;;;;;;;;;5114314;28;20059;-60
2023/10/02 05:44:36;;;;;;;6.68;4.80;;;;;;;;;;5111815;28;20062;-60
2023/10/02 05:47:05;;;;;;;7.82;5.30;;;;;;;;;;5112343;28;20035;-60
2023/10/02 05:49:31;;;;;;;12.27;8.38;;;;;;;;;;5111548;28;20034;-60
2023/10/02 05:51:59;;;;;;;11.50;7.65;;;;;;;;;;5112442;28;20040;-60
2023/10/02 05:54:26;;;;;;;10.70;6.95;;;;;;;;;;5111991;28;20111;-60
2023/10/02 05:57:08;;;;;;;10.85;6.50;;;;;;;;;;5121561;27;20042;-60
2023/10/02 05:59:45;;;;;;;11.70;5.90;;;;;;;;;;5122786;27;20073;-68
2023/10/02 06:02:14;;;;;;;13.23;9.75;;;;;;;;;;5123942;28;20039;-60
2023/10/02 06:04:47;;;;;;;7.38;6.28;;;;;;;;;;5132974;27;20390;-60
2023/10/02 06:10:09;;;;;;;9.55;5.20;;;;;;;;;;5133257;28;20032;-61
2023/10/02 06:12:35;;;;;;;5.88;4.90;;;;;;;;;;5132912;28;20031;-60
2023/10/02 06:15:43;;;;;;;6.90;4.40;;;;;;;;;;5132072;28;20031;-60
2023/10/02 06:17:53;;;;;;;6.75;4.20;;;;;;;;;;5132078;28;20035;-60
2023/10/02 06:20:18;;;;;;;8.40;4.50;;;;;;;;;;5133018;28;20065;-60
2023/10/02 06:22:47;;;;;;;8.65;4.55;;;;;;;;;;5133227;28;20039;-60
2023/10/02 06:25:18;;;;;;;10.85;5.68;;;;;;;;;;5133937;28;20031;-60
2023/10/02 06:27:43;;;;;;;;;;;;;;;;;;5114509;28;20054;-61
2023/10/02 06:30:16;;;;;;;7.95;4.65;;;;;;;;;;5132110;28;20399;-60
2023/10/02 06:32:52;;;;;;;9.05;5.28;;;;;;;;;;5132512;28;20031;-60
2023/10/02 06:35:21;;;;;;;8.52;5.00;;;;;;;;;;5132828;28;20046;-60
2023/10/02 06:37:48;;;;;;;9.73;4.88;;;;;;;;;;5132777;28;20034;-60
2023/10/02 06:40:20;;;;;;;10.02;5.28;;;;;;;;;;5132790;28;20039;-60
2023/10/02 06:42:48;;;;;;;7.82;5.28;;;;;;;;;;5136116;27;20528;-60
2023/10/02 06:45:15;;;;;;;8.77;5.03;;;;;;;;;;5137023;27;20031;-61
2023/10/02 06:47:41;;;;;;;12.05;8.02;;;;;;;;;;5137313;27;20503;-60
2023/10/02 06:52:53;;;;;;;10.63;5.80;;;;;;;;;;5137117;27;20031;-60
2023/10/02 06:55:19;;;;;;;10.80;5.50;;;;;;;;;;5101676;27;20057;-61
2023/10/02 06:57:53;;;;;;;10.15;5.45;;;;;;;;;;5137032;27;20047;-61
2023/10/02 07:00:19;;;;;;;7.80;5.05;;;;;;;;;;5136983;27;20039;-60
2023/10/02 07:02:56;;;;;;;7.38;4.45;;;;;;;;;;5137059;27;20039;-60
2023/10/02 07:05:27;;;;;;;11.07;4.63;;;;;;;;;;5118410;27;20043;-61
2023/10/02 07:08:01;;;;;;;6.05;5.13;;;;;;;;;;5136845;27;20087;-60
2023/10/02 07:10:40;;;;;;;6.95;4.60;;;;;;;;;;5136783;27;20388;-60
2023/10/02 07:13:18;;;;;;;7.10;5.10;;;;;;;;;;5136799;27;20347;-60
2023/10/02 07:15:57;;;;;;;7.32;4.43;;;;;;;;;;5136770;27;20061;-61
2023/10/02 07:18:35;;;;;;;6.13;3.80;;;;;;;;;;5136639;27;20039;-60
2023/10/02 07:21:01;;;;;;;8.48;4.75;;;;;;;;;;5118297;27;20071;-61
2023/10/02 07:23:29;;;;;;;8.70;5.10;;;;;;;;;;5136507;27;20047;-60
2023/10/02 07:25:54;;;;;;;7.57;5.40;;;;;;;;;;5136667;27;20130;-61
2023/10/02 07:28:23;;;;;;;8.57;4.60;;;;;;;;;;5136441;27;20343;-60
2023/10/02 07:30:51;;;;;;;9.15;5.15;;;;;;;;;;5118060;27;20031;-60
2023/10/02 07:33:18;;;;;;;7.25;4.80;;;;;;;;;;5117992;27;20397;-60
2023/10/02 07:36:14;;;;;;;7.57;4.78;;;;;;;;;;5137024;27;20377;-61
2023/10/02 07:38:34;;;;;;;9.02;4.90;;;;;;;;;;5136034;27;20077;-61
2023/10/02 07:41:08;;;;;;;5.75;4.47;;;;;;;;;;5136200;27;20039;-60
2023/10/02 07:43:34;;;;;;;7.57;4.22;;;;;;;;;;5136172;27;20035;-61
2023/10/02 07:46:15;;;;;;;10.30;5.22;;;;;;;;;;5117650;27;20118;-69
2023/10/02 07:48:41;;;;;;;8.23;4.60;;;;;;;;;;5136126;27;20035;-70
2023/10/02 07:51:09;;;;;;;8.25;4.57;;;;;;;;;;5135850;27;20114;-69
2023/10/02 07:53:40;;;;;;;7.32;4.35;;;;;;;;;;5116546;27;20038;-68
2023/10/02 07:56:11;;;;;;;7.60;5.00;;;;;;;;;;5118215;27;20031;-68
2023/10/02 07:58:37;;;;;;;9.45;4.40;;;;;;;;;;5136560;27;20058;-68
2023/10/02 08:01:11;;;;;;;6.10;4.07;;;;;;;;;;5136629;27;20058;-68
2023/10/02 08:03:43;;;;;;;9.80;4.43;;;;;;;;;;5135662;27;20491;-68
2023/10/02 08:06:22;;;;;;;9.48;4.72;;;;;;;;;;5135749;27;20039;-68
2023/10/02 08:11:33;;;;;;;5.90;4.35;;;;;;;;;;5116721;27;20035;-68
2023/10/02 08:13:58;;;;;;;10.40;5.22;;;;;;;;;;5117899;27;20050;-66
2023/10/02 08:16:24;;;;;;;9.25;5.03;;;;;;;;;;5124511;27;20046;-69
2023/10/02 08:18:58;;;;;;;13.57;6.18;;;;;;;;;;5136167;27;20035;-68
2023/10/02 08:21:46;;;;;;;10.82;5.25;;;;;;;;;;5136230;27;20031;-68
2023/10/02 08:24:14;;;;;;;10.25;4.50;;;;;;;;;;5136061;27;20449;-68
2023/10/02 08:26:40;;;;;;;10.88;5.50;;;;;;;;;;5135974;27;20087;-68
2023/10/02 08:29:07;;;;;;;10.77;5.13;;;;;;;;;;5135647;27;20042;-68
2023/10/02 08:31:33;;;;;;;12.00;6.07;;;;;;;;;;5135908;27;20079;-69
2023/10/02 08:34:41;;;;;;;14.02;6.18;;;;;;;;;;5135713;27;20083;-68
2023/10/02 08:37:04;;;;;;;16.30;6.00;;;;;;;;;;5127577;27;20058;-68
2023/10/02 08:39:31;;;;;;;8.95;3.95;;;;;;;;;;5135810;27;20027;-68
2023/10/02 08:41:59;;;;;;;10.27;4.40;;;;;;;;;;5135798;27;20058;-69
2023/10/02 08:44:24;;;;;;;6.95;4.00;;;;;;;;;;5135732;27;20134;-68
2023/10/02 08:46:49;;;;;;;6.93;2.90;;;;;;;;;;5135639;27;20110;-68
2023/10/02 08:49:16;;;;;;;7.18;4.05;;;;;;;;;;5135553;27;20031;-69
2023/10/02 08:51:51;;;;;;;8.90;3.78;;;;;;;;;;5135629;27;20110;-68
2023/10/02 08:54:27;;;;;;;7.45;3.67;;;;;;;;;;5135508;27;20735;-68
2023/10/02 08:57:06;;;;;;;6.13;3.97;;;;;;;;;;5135487;27;20135;-68
2023/10/02 08:59:42;;;;;;;7.38;3.78;;;;;;;;;;5135466;27;20047;-66
2023/10/02 09:02:13;;;;;;;7.28;3.88;;;;;;;;;;5135165;27;20536;-66
2023/10/02 09:04:40;;;;;;;5.03;3.22;;;;;;;;;;5134675;27;20042;-68
2023/10/02 09:07:15;;;;;;;8.60;3.65;;;;;;;;;;5134702;27;20042;-68
2023/10/02 09:09:45;;;;;;;7.20;3.63;;;;;;;;;;5134186;27;20046;-68
2023/10/02 09:12:15;;;;;;;7.85;3.60;;;;;;;;;;5134680;27;20084;-68
2023/10/02 09:14:40;;;;;;;5.83;3.20;;;;;;;;;;5134908;27;20047;-68
2023/10/02 09:17:23;;;;;;;7.45;3.53;;;;;;;;;;5134783;27;20062;-68
2023/10/02 09:20:07;;;;;;;7.25;4.00;;;;;;;;;;5134981;27;20097;-66
2023/10/02 09:22:41;;;;;;;5.45;3.63;;;;;;;;;;5134987;27;20043;-69
2023/10/02 09:25:13;;;;;;;6.10;3.70;;;;;;;;;;5134815;27;20381;-69
2023/10/02 09:27:57;;;;;;;6.00;3.63;;;;;;;;;;5134893;27;20170;-69
2023/10/02 09:33:07;;;;;;;5.07;3.15;;;;;;;;;;5134319;27;20031;-69
2023/10/02 09:35:40;;;;;;;9.05;3.45;;;;;;;;;;5134589;27;20046;-69
2023/10/02 09:38:15;;;;;;;9.02;4.13;;;;;;;;;;5128376;27;20077;-69
2023/10/02 09:43:35;;;;;;;7.32;3.95;;;;;;;;;;5123674;27;20044;-67
2023/10/02 09:46:35;;;;;;;5.35;3.88;;;;;;;;;;5122976;27;20100;-66
2023/10/02 09:49:01;;;;;;;10.60;4.47;;;;;;;;;;5119021;27;20091;-69
2023/10/02 09:51:30;;;;;;;8.63;4.15;;;;;;;;;;5123879;27;20046;-68
2023/10/02 09:54:13;;;;;;;11.35;4.38;;;;;;;;;;5122863;27;20106;-68
2023/10/02 09:56:51;;;;;;;7.13;3.65;;;;;;;;;;5102782;28;20399;-68
2023/10/02 09:59:23;;;;;;;10.32;4.50;;;;;;;;;;5122789;27;20054;-60
2023/10/02 10:02:47;;;;;;;7.25;3.95;;;;;;;;;;5122686;27;20046;-60
2023/10/02 10:05:45;;;;;;;7.35;3.80;;;;;;;;;;5132633;28;20117;-60
2023/10/02 10:08:18;;;;;;;5.30;3.50;;;;;;;;;;5124039;28;20069;-60
2023/10/02 10:11:15;;;;;;;5.50;2.88;;;;;;;;;;5133150;28;20096;-60
2023/10/02 10:13:25;;;;;;;5.93;3.73;;;;;;;;;;5125832;28;20055;-60
2023/10/02 10:16:08;;;;;;;8.88;3.53;;;;;;;;;;5134440;27;20038;-61
2023/10/02 10:19:22;;;;;;;5.50;3.30;;;;;;;;;;5138427;27;20445;-61
2023/10/02 10:22:00;;;;;;;5.10;2.67;;;;;;;;;;5138428;27;20050;-60
2023/10/02 10:24:35;;;;;;;6.43;3.55;;;;;;;;;;5138706;27;20031;-60
2023/10/02 10:27:01;;;;;;;8.50;3.47;;;;;;;;;;5138557;27;20039;-61
2023/10/02 10:29:42;;;;;;;6.47;3.72;;;;;;;;;;5138048;27;20087;-68
2023/10/02 10:32:26;;;;;;;5.90;3.28;;;;;;;;;;5119327;27;20035;-61
2023/10/02 10:35:11;;;;;;;8.45;3.83;;;;;;;;;;5137424;27;20457;-60
2023/10/02 10:37:46;;;;;;;9.80;4.13;;;;;;;;;;5137678;27;20110;-60
2023/10/02 10:43:15;;;;;;;6.60;2.80;;;;;;;;;;5137421;27;20046;-60
2023/10/02 10:45:41;;;;;;;5.93;2.65;;;;;;;;;;5137215;27;20035;-60
2023/10/02 10:48:18;;;;;;;5.78;2.95;;;;;;;;;;5137261;27;20035;-60
2023/10/02 10:50:56;;;;;;;6.10;2.60;;;;;;;;;;5137242;27;20035;-60
2023/10/02 10:53:28;;;;;;;5.15;3.15;;;;;;;;;;5137642;27;20487;-60
2023/10/02 10:55:56;;;;;;;5.63;2.45;;;;;;;;;;5122181;27;20392;-61
2023/10/02 10:58:31;;;;;;;5.45;2.97;;;;;;;;;;5136739;27;20035;-60
2023/10/02 11:00:58;;;;;;;5.07;3.13;;;;;;;;;;5139095;27;20653;-60
2023/10/02 11:03:26;;;;;;;6.13;3.05;;;;;;;;;;5136674;27;20039;-60
2023/10/02 11:05:52;;;;;;;5.57;3.25;;;;;;;;;;5137351;27;20031;-60
2023/10/02 11:08:24;;;;;;;6.43;2.92;;;;;;;;;;5138807;27;20298;-60
2023/10/02 11:11:01;;;;;;;4.10;2.42;;;;;;;;;;5142518;27;20035;-68
2023/10/02 11:13:51;;;;;;;5.03;2.60;;;;;;;;;;5137160;27;20039;-69
2023/10/02 11:16:39;;;;;;;7.70;3.00;;;;;;;;;;5138435;27;20054;-69
2023/10/02 11:22:03;;;;;;;3.53;2.50;;;;;;;;;;5139014;27;20531;-68
2023/10/02 11:24:29;;;;;;;6.50;3.15;;;;;;;;;;5139361;27;20047;-68
2023/10/02 11:27:04;;;;;;;7.15;3.67;;;;;;;;;;5141066;27;20382;-61
2023/10/02 11:29:45;;;;;;;4.63;2.67;;;;;;;;;;5140352;27;20038;-60
2023/10/02 11:32:22;;;;;;;4.00;2.88;;;;;;;;;;5136395;27;20041;-60
2023/10/02 11:35:02;;;;;;;4.63;2.92;;;;;;;;;;5136347;27;20468;-60
2023/10/02 11:37:28;;;;;;;5.55;3.22;;;;;;;;;;5137038;27;20031;-60
2023/10/02 11:39:55;;;;;;;4.75;3.17;;;;;;;;;;5118340;27;20366;-60
2023/10/02 11:42:21;;;;;;;4.45;2.50;;;;;;;;;;5136691;27;20035;-60
2023/10/02 11:44:47;;;;;;;2.63;2.33;;;;;;;;;;5136811;27;20047;-60
2023/10/02 11:47:12;;;;;;;3.67;2.60;;;;;;;;;;5136842;27;20054;-60
2023/10/02 11:49:38;;;;;;;4.25;2.70;;;;;;;;;;5135931;27;20519;-61
2023/10/02 11:52:03;;;;;;;5.53;3.22;;;;;;;;;;5118146;27;20484;-60
2023/10/02 11:54:29;;;;;;;5.68;2.60;;;;;;;;;;5117895;27;20050;-60
2023/10/02 11:56:55;;;;;;;5.30;2.70;;;;;;;;;;5136079;27;20058;-60
2023/10/02 11:59:20;;;;;;;3.47;2.80;;;;;;;;;;5136567;27;20118;-60
2023/10/02 12:01:47;;;;;;;4.88;2.72;;;;;;;;;;5136214;27;20533;-60
2023/10/02 12:04:15;;;;;;;4.55;3.15;;;;;;;;;;5136329;27;20035;-60
2023/10/02 12:06:41;;;;;;;4.45;2.90;;;;;;;;;;5136491;27;20059;-60
2023/10/02 12:09:06;;;;;;;4.57;3.08;;;;;;;;;;5135786;27;20508;-60
2023/10/02 12:11:32;;;;;;;4.40;2.80;;;;;;;;;;5136398;27;20054;-60
2023/10/02 12:13:57;;;;;;;3.22;2.75;;;;;;;;;;5135951;27;20084;-60
2023/10/02 12:16:23;;;;;;;5.18;2.75;;;;;;;;;;5136292;27;20492;-60
2023/10/02 12:18:50;;;;;;;3.20;2.50;;;;;;;;;;5135893;27;20035;-60
2023/10/02 12:21:16;;;;;;;2.90;2.20;;;;;;;;;;5135977;27;20039;-61
2023/10/02 12:23:43;;;;;;;3.90;2.60;;;;;;;;;;5136070;27;20353;-60
2023/10/02 12:26:11;;;;;;;3.10;2.30;;;;;;;;;;5136590;27;20131;-60
2023/10/02 12:28:37;;;;;;;5.18;2.50;;;;;;;;;;5135778;27;20066;-60
2023/10/02 12:31:10;;;;;;;3.63;2.05;;;;;;;;;;5135903;27;20510;-60
2023/10/02 12:33:36;;;;;;;2.92;2.30;;;;;;;;;;5117528;27;20047;-60
2023/10/02 12:36:10;;;;;;;2.50;2.30;;;;;;;;;;5135932;27;20038;-60
2023/10/02 12:38:35;;;;;;;2.30;2.10;;;;;;;;;;5135506;27;20035;-60
2023/10/02 12:41:01;;;;;;;2.70;1.75;;;;;;;;;;5135610;27;20058;-60
2023/10/02 12:43:26;;;;;;;2.53;1.80;;;;;;;;;;5135705;27;20463;-60
2023/10/02 12:45:53;;;;;;;3.95;2.58;;;;;;;;;;5135656;27;20034;-60
2023/10/02 12:48:18;;;;;;;3.75;2.20;;;;;;;;;;5135656;27;20126;-60
2023/10/02 12:50:45;;;;;;;3.58;2.60;;;;;;;;;;5135182;27;20110;-60
2023/10/02 12:53:11;;;;;;;3.25;2.25;;;;;;;;;;5135559;27;20428;-60
2023/10/02 12:55:37;;;;;;;3.97;2.15;;;;;;;;;;5135333;27;20119;-60
2023/10/02 12:58:04;;;;;;;2.40;2.17;;;;;;;;;;5135187;27;20023;-60
2023/10/02 13:00:30;;;;;;;3.08;2.58;;;;;;;;;;5135265;27;20135;-60
2023/10/02 13:02:57;;;;;;;4.43;2.03;;;;;;;;;;5135013;27;20063;-60
2023/10/02 13:05:22;;;;;;;3.40;2.60;;;;;;;;;;5135063;27;20487;-60
2023/10/02 13:07:48;;;;;;;3.42;2.22;;;;;;;;;;5135256;27;20027;-60
2023/10/02 13:10:14;;;;;;;4.10;2.35;;;;;;;;;;5134236;27;20031;-60
2023/10/02 13:12:40;;;;;;;4.03;2.92;;;;;;;;;;5133410;27;20123;-60
2023/10/02 13:15:06;;;;;;;3.97;2.67;;;;;;;;;;5114742;27;20070;-60
2023/10/02 13:17:31;;;;;;;3.35;2.40;;;;;;;;;;5134280;27;20457;-60
2023/10/02 13:19:57;;;;;;;3.35;2.38;;;;;;;;;;5134999;27;20433;-60
2023/10/02 13:22:23;;;;;;;4.47;3.10;;;;;;;;;;5134925;27;20047;-60
2023/10/02 13:24:50;;;;;;;5.05;2.70;;;;;;;;;;5134592;27;20122;-68
2023/10/02 13:27:17;;;;;;;6.32;2.55;;;;;;;;;;5116132;27;20039;-60
2023/10/02 13:29:43;;;;;;;5.43;3.13;;;;;;;;;;5134238;27;20035;-60
2023/10/02 13:32:09;;;;;;;3.65;2.67;;;;;;;;;;5134199;27;20045;-60
2023/10/02 13:34:34;;;;;;;3.70;2.80;;;;;;;;;;5134140;27;20118;-59
2023/10/02 13:37:00;;;;;;;4.18;3.00;;;;;;;;;;5133966;27;20126;-59
2023/10/02 13:39:26;;;;;;;2.85;2.53;;;;;;;;;;5133981;27;20031;-60
2023/10/02 13:41:52;;;;;;;5.10;3.13;;;;;;;;;;5133989;27;20043;-60
2023/10/02 13:44:19;;;;;;;4.72;2.58;;;;;;;;;;5133832;27;20488;-60
2023/10/02 13:46:46;;;;;;;3.15;2.42;;;;;;;;;;5133889;27;20019;-60
2023/10/02 13:49:12;;;;;;;3.97;2.90;;;;;;;;;;5115468;27;20472;-60
2023/10/02 13:51:38;;;;;;;5.70;3.08;;;;;;;;;;5114478;27;20063;-60
2023/10/02 13:54:04;;;;;;;4.55;2.50;;;;;;;;;;5133790;27;20036;-60
2023/10/02 13:56:32;;;;;;;4.32;2.83;;;;;;;;;;5133709;27;20035;-60
2023/10/02 13:58:59;;;;;;;4.05;2.80;;;;;;;;;;5133635;27;20572;-60
2023/10/02 14:01:25;;;;;;;4.95;2.88;;;;;;;;;;5114945;27;20097;-60
2023/10/02 14:03:51;;;;;;;4.18;2.70;;;;;;;;;;5133473;27;20031;-60
2023/10/02 14:06:21;;;;;;;4.97;2.80;;;;;;;;;;5133637;27;20118;-60
2023/10/02 14:08:47;;;;;;;5.05;2.70;;;;;;;;;;5133587;27;20031;-60
2023/10/02 14:11:16;;;;;;;5.82;2.90;;;;;;;;;;5133595;28;20037;-60
2023/10/02 14:13:41;;;;;;;4.18;2.67;;;;;;;;;;5133488;27;20035;-60
2023/10/02 14:16:09;;;;;;;5.13;2.72;;;;;;;;;;5133563;28;20031;-59
2023/10/02 14:18:38;;;;;;;4.78;2.75;;;;;;;;;;5132200;28;20054;-59
2023/10/02 14:21:05;;;;;;;2.67;2.43;;;;;;;;;;5133661;28;20035;-59
2023/10/02 14:23:37;;;;;;;4.93;3.00;;;;;;;;;;5134160;28;20227;-59
2023/10/02 14:26:06;;;;;;;3.63;2.95;;;;;;;;;;5134151;27;20046;-59
2023/10/02 14:28:32;;;;;;;3.83;2.47;;;;;;;;;;5134102;27;20024;-59
2023/10/02 14:30:57;;;;;;;3.13;2.83;;;;;;;;;;5134173;28;20487;-59
2023/10/02 14:33:23;;;;;;;4.22;2.90;;;;;;;;;;5134038;28;20038;-59
2023/10/02 14:35:51;;;;;;;3.15;2.45;;;;;;;;;;5133834;28;20035;-59
2023/10/02 14:38:16;;;;;;;3.95;2.65;;;;;;;;;;5133490;27;20031;-59
2023/10/02 14:40:42;;;;;;;6.03;3.05;;;;;;;;;;5133829;28;20039;-59
2023/10/02 14:43:08;;;;;;;4.70;2.70;;;;;;;;;;5133505;27;20130;-59
2023/10/02 14:45:34;;;;;;;3.95;2.88;;;;;;;;;;5132952;28;20273;-59
2023/10/02 14:48:01;;;;;;;3.38;2.47;;;;;;;;;;5132599;27;20118;-59
2023/10/02 14:50:29;;;;;;;3.85;2.47;;;;;;;;;;5133147;28;20472;-59
2023/10/02 14:52:55;;;;;;;3.58;3.08;;;;;;;;;;5133419;27;20031;-59
2023/10/02 14:55:23;;;;;;;4.78;3.10;;;;;;;;;;5133958;27;20380;-59
2023/10/02 14:57:49;;;;;;;3.92;2.90;;;;;;;;;;5133251;27;20039;-59
2023/10/02 15:00:15;;;;;;;3.72;2.88;;;;;;;;;;5132194;28;20047;-60
2023/10/02 15:02:42;;;;;;;5.35;2.90;;;;;;;;;;5068703;27;20044;-59
2023/10/02 15:05:09;;;;;;;3.63;2.67;;;;;;;;;;5052986;28;20062;-59
2023/10/02 15:07:36;;;;;;;5.18;3.03;;;;;;;;;;5052293;28;20034;-59
2023/10/02 15:10:02;;;;;;;3.17;2.70;;;;;;;;;;5052942;28;20037;-59
2023/10/02 15:12:30;;;;;;;4.45;2.78;;;;;;;;;;5122346;27;20574;-59
2023/10/02 15:14:55;;;;;;;4.95;3.10;;;;;;;;;;5053022;28;20487;-59
2023/10/02 15:17:22;;;;;;;4.25;3.22;;;;;;;;;;5049325;28;20048;-59
2023/10/02 15:19:47;;;;;;;10.15;5.53;;;;;;;;;;5122099;27;20390;-59
2023/10/02 15:22:13;;;;;;;33.55;14.50;;;;;;;;;;5046587;28;20045;-60
2023/10/02 15:24:39;;;;;;;34.58;15.02;;;;;;;;;;5111571;27;20109;-59
2023/10/02 15:27:05;;;;;;;30.73;11.60;;;;;;;;;;5042171;28;20456;-59
2023/10/02 15:29:30;;;;;;;28.98;11.20;;;;;;;;;;5041138;28;20066;-60
2023/10/02 15:31:56;;;;;;;11.45;6.00;;;;;;;;;;5043009;28;20033;-59
2023/10/02 15:34:21;;;;;;;12.80;6.15;;;;;;;;;;5041907;28;20069;-59
2023/10/02 15:36:47;;;;;;;6.18;4.05;;;;;;;;;;5043787;28;20045;-59
2023/10/02 15:39:14;;;;;;;25.23;8.63;;;;;;;;;;5035730;28;20065;-59
2023/10/02 15:41:44;;;;;;;75.93;23.83;;;;;;;;;;5035684;28;20040;-59
2023/10/02 15:44:15;;;;;;;28.35;10.70;;;;;;;;;;5052408;28;20133;-66
2023/10/02 15:46:50;;;;;;;13.57;5.13;;;;;;;;;;5052466;28;20090;-67